Time;durP1;ratioP1;P1;durP2;ratioP2;P2;SDS_P1;SDS_P2;PMS_P1;PMS_P2;Temp;Humidity;BMP_temperature;BMP_pressure;BME280_temperature;BME280_humidity;BME280_pressure;Samples;Min_cycle;Max_cycle;Signal;HPM_P1;HPM_P2
2022/03/25 00:01:09;;;;;;;42.50;18.13;;;9.70;99.90;;;;;;5025103;28;20211;-73
2022/03/25 00:03:37;;;;;;;35.00;16.83;;;10.00;99.90;;;;;;5018198;28;20711;-73
2022/03/25 00:06:04;;;;;;;33.30;17.20;;;9.90;99.90;;;;;;5023636;28;20207;-73
2022/03/25 00:08:31;;;;;;;32.83;16.20;;;9.70;99.90;;;;;;5019658;28;20224;-74
2022/03/25 00:10:58;;;;;;;32.50;16.23;;;9.50;99.90;;;;;;5023533;28;20302;-72
2022/03/25 00:13:24;;;;;;;32.50;16.37;;;9.40;99.90;;;;;;5028364;28;20235;-72
2022/03/25 00:15:52;;;;;;;36.50;16.13;;;9.30;99.90;;;;;;5023976;28;20216;-72
2022/03/25 00:18:18;;;;;;;32.87;16.67;;;9.10;99.90;;;;;;5026288;28;20310;-71
2022/03/25 00:20:45;;;;;;;40.67;17.17;;;8.90;99.90;;;;;;5024261;28;20245;-73
2022/03/25 00:23:12;;;;;;;34.10;16.70;;;8.90;99.90;;;;;;5024715;28;20222;-73
2022/03/25 00:25:39;;;;;;;36.73;16.50;;;8.80;99.90;;;;;;5023524;28;20619;-71
2022/03/25 00:28:06;;;;;;;33.37;16.10;;;8.80;99.90;;;;;;5020943;28;20247;-73
2022/03/25 00:30:34;;;;;;;37.00;17.20;;;8.70;99.90;;;;;;5019857;28;20608;-72
2022/03/25 00:33:00;;;;;;;40.57;18.03;;;8.70;99.90;;;;;;5024281;28;20249;-72
2022/03/25 00:35:27;;;;;;;33.97;17.03;;;8.80;99.90;;;;;;5017230;28;20227;-72
2022/03/25 00:37:54;;;;;;;37.07;18.10;;;8.80;99.90;;;;;;5022611;28;20214;-72
2022/03/25 00:40:20;;;;;;;34.30;16.57;;;8.90;99.90;;;;;;5023370;28;20194;-74
2022/03/25 00:42:47;;;;;;;35.87;16.03;;;8.90;99.90;;;;;;5012156;28;20278;-72
2022/03/25 00:45:14;;;;;;;32.60;15.97;;;8.90;99.90;;;;;;5026232;28;20210;-73
2022/03/25 00:47:42;;;;;;;31.53;16.10;;;8.80;99.90;;;;;;5028145;28;20264;-75
2022/03/25 00:50:10;;;;;;;32.53;15.70;;;8.70;99.90;;;;;;5022763;28;20260;-72
2022/03/25 00:52:38;;;;;;;33.10;16.77;;;8.50;99.90;;;;;;5027678;28;20576;-74
2022/03/25 00:55:06;;;;;;;36.97;15.77;;;8.40;99.90;;;;;;5022425;28;20644;-73
2022/03/25 00:57:32;;;;;;;35.73;16.67;;;8.40;99.90;;;;;;5019718;28;20193;-72
2022/03/25 01:00:00;;;;;;;33.53;16.63;;;8.30;99.90;;;;;;5021420;28;20199;-76
2022/03/25 01:02:26;;;;;;;31.27;15.10;;;8.30;99.90;;;;;;5022000;28;20676;-72
2022/03/25 01:04:53;;;;;;;38.53;17.20;;;8.20;99.90;;;;;;5019885;28;20199;-72
2022/03/25 01:07:20;;;;;;;35.03;16.80;;;8.10;99.90;;;;;;5014788;28;20594;-71
2022/03/25 01:09:47;;;;;;;33.07;16.73;;;8.00;99.90;;;;;;5016695;28;20684;-72
2022/03/25 01:12:14;;;;;;;36.10;16.10;;;8.00;99.90;;;;;;5025956;28;20194;-72
2022/03/25 01:14:41;;;;;;;34.87;16.73;;;7.90;99.90;;;;;;5013681;28;20632;-72
2022/03/25 01:17:14;;;;;;;36.53;16.60;;;7.80;99.90;;;;;;5013094;28;20232;-73
2022/03/25 01:19:41;;;;;;;34.93;16.67;;;7.80;99.90;;;;;;5017719;28;20314;-74
2022/03/25 01:22:08;;;;;;;37.03;17.03;;;7.70;99.90;;;;;;5029815;28;20197;-72
2022/03/25 01:24:34;;;;;;;32.97;15.73;;;7.70;99.90;;;;;;5016021;28;20216;-72
2022/03/25 01:27:02;;;;;;;32.80;16.20;;;7.60;99.90;;;;;;5019165;28;20576;-73
2022/03/25 01:29:29;;;;;;;37.17;17.43;;;7.60;99.90;;;;;;5025732;28;20270;-72
2022/03/25 01:31:56;;;;;;;34.27;16.33;;;7.60;99.90;;;;;;5022771;28;20212;-72
2022/03/25 01:34:23;;;;;;;33.10;16.00;;;7.50;99.90;;;;;;5024285;28;20319;-72
2022/03/25 01:36:50;;;;;;;37.20;16.50;;;7.50;99.90;;;;;;5021231;28;20455;-72
2022/03/25 01:39:17;;;;;;;31.43;16.30;;;7.40;99.90;;;;;;5018372;28;20290;-73
2022/03/25 01:41:47;;;;;;;34.00;16.23;;;7.30;99.90;;;;;;5020282;28;20778;-72
2022/03/25 01:44:14;;;;;;;33.53;16.33;;;7.20;99.90;;;;;;5023082;28;20683;-72
2022/03/25 01:46:41;;;;;;;33.00;16.13;;;7.10;99.90;;;;;;5017651;28;20199;-72
2022/03/25 01:49:08;;;;;;;41.33;15.83;;;7.10;99.90;;;;;;5025921;28;20703;-72
2022/03/25 01:51:36;;;;;;;32.70;16.77;;;7.30;99.90;;;;;;5028455;28;20214;-70
2022/03/25 01:54:08;;;;;;;37.73;16.10;;;7.10;99.90;;;;;;5026107;28;20203;-73
2022/03/25 01:56:34;;;;;;;31.67;15.80;;;7.00;99.90;;;;;;5017793;28;20198;-71
2022/03/25 01:59:01;;;;;;;35.20;16.93;;;7.00;99.90;;;;;;5015688;28;20230;-72
2022/03/25 02:01:28;;;;;;;33.03;16.73;;;7.00;99.90;;;;;;5013450;28;20238;-74
2022/03/25 02:03:55;;;;;;;33.50;17.67;;;7.10;99.90;;;;;;5018126;28;20387;-72
2022/03/25 02:06:22;;;;;;;33.33;16.23;;;7.20;99.90;;;;;;5017432;28;20202;-71
2022/03/25 02:08:49;;;;;;;37.63;17.17;;;7.00;99.90;;;;;;5019629;28;20311;-73
2022/03/25 02:11:17;;;;;;;40.53;19.07;;;6.90;99.90;;;;;;5020813;28;20226;-73
2022/03/25 02:13:44;;;;;;;39.83;18.40;;;7.10;99.90;;;;;;5026926;28;20216;-76
2022/03/25 02:16:11;;;;;;;36.17;17.13;;;7.10;99.90;;;;;;5018931;28;20651;-73
2022/03/25 02:18:38;;;;;;;35.40;17.10;;;7.10;99.90;;;;;;5020258;28;20292;-73
2022/03/25 02:21:05;;;;;;;36.30;17.03;;;6.90;99.90;;;;;;5024179;28;20209;-74
2022/03/25 02:23:31;;;;;;;36.90;16.23;;;6.80;99.90;;;;;;5023755;28;20264;-75
2022/03/25 02:25:59;;;;;;;38.13;17.60;;;6.80;99.90;;;;;;5023585;28;20203;-74
2022/03/25 02:28:26;;;;;;;35.37;17.20;;;6.70;99.90;;;;;;5028248;28;20245;-74
2022/03/25 02:30:53;;;;;;;34.17;18.03;;;6.60;99.90;;;;;;5025524;28;20434;-73
2022/03/25 02:33:20;;;;;;;34.93;18.37;;;6.50;99.90;;;;;;5026978;28;20195;-75
2022/03/25 02:35:50;;;;;;;39.40;17.90;;;6.40;99.90;;;;;;5022728;28;20202;-73
2022/03/25 02:38:23;;;;;;;40.13;18.00;;;6.30;99.90;;;;;;5023513;28;20210;-73
2022/03/25 02:40:50;;;;;;;34.23;17.23;;;6.30;99.90;;;;;;5023287;28;20206;-73
2022/03/25 02:43:17;;;;;;;37.10;17.57;;;6.50;99.90;;;;;;5022833;28;20657;-73
2022/03/25 02:45:44;;;;;;;38.30;18.60;;;6.50;99.90;;;;;;5026754;28;20215;-74
2022/03/25 02:48:14;;;;;;;38.27;18.40;;;6.40;99.90;;;;;;5025846;28;20225;-75
2022/03/25 02:50:40;;;;;;;38.80;18.50;;;6.60;99.90;;;;;;5032066;28;20211;-73
2022/03/25 02:53:08;;;;;;;39.47;18.87;;;6.40;99.90;;;;;;5031420;28;20243;-75
2022/03/25 02:55:35;;;;;;;36.20;18.10;;;6.30;99.90;;;;;;5024735;28;20197;-73
2022/03/25 02:58:02;;;;;;;37.73;18.57;;;6.10;99.90;;;;;;5028327;28;20523;-72
2022/03/25 03:00:29;;;;;;;40.93;18.43;;;6.10;99.90;;;;;;5028212;28;20240;-73
2022/03/25 03:03:00;;;;;;;34.97;18.07;;;6.10;99.90;;;;;;5016486;28;20220;-76
2022/03/25 03:05:31;;;;;;;33.37;17.73;;;6.10;99.90;;;;;;5020378;28;20563;-72
2022/03/25 03:07:58;;;;;;;37.23;18.03;;;6.10;99.90;;;;;;5020573;28;20212;-73
2022/03/25 03:10:25;;;;;;;38.20;19.47;;;6.10;99.90;;;;;;5027624;28;20221;-73
2022/03/25 03:12:55;;;;;;;35.00;18.23;;;6.10;99.90;;;;;;5025688;28;20201;-73
2022/03/25 03:15:22;;;;;;;35.80;18.40;;;6.10;99.90;;;;;;5024944;28;20200;-73
2022/03/25 03:17:49;;;;;;;40.70;18.77;;;6.00;99.90;;;;;;5026212;28;20198;-73
2022/03/25 03:20:18;;;;;;;41.50;18.87;;;5.90;99.90;;;;;;5019069;28;20210;-74
2022/03/25 03:22:44;;;;;;;40.17;19.57;;;6.00;99.90;;;;;;5028776;28;20190;-73
2022/03/25 03:25:11;;;;;;;38.30;18.77;;;6.10;99.90;;;;;;5021440;28;20208;-74
2022/03/25 03:27:39;;;;;;;38.33;17.43;;;6.00;99.90;;;;;;5021497;28;20206;-73
2022/03/25 03:30:08;;;;;;;37.67;18.43;;;6.00;99.90;;;;;;5022995;28;20208;-73
2022/03/25 03:32:36;;;;;;;48.90;18.40;;;5.90;99.90;;;;;;5018171;28;20184;-74
2022/03/25 03:35:04;;;;;;;37.53;17.97;;;5.90;99.90;;;;;;5026415;28;20299;-73
2022/03/25 03:37:31;;;;;;;35.23;17.77;;;5.90;99.90;;;;;;5022327;28;20193;-73
2022/03/25 03:39:58;;;;;;;35.23;18.37;;;5.90;99.90;;;;;;5025950;28;20198;-73
2022/03/25 03:42:25;;;;;;;34.90;17.87;;;5.80;99.90;;;;;;5020549;28;20189;-73
2022/03/25 03:44:51;;;;;;;36.00;17.47;;;5.70;99.90;;;;;;5030961;28;20725;-73
2022/03/25 03:47:19;;;;;;;36.93;18.47;;;5.60;99.90;;;;;;5027343;28;20214;-73
2022/03/25 03:49:46;;;;;;;38.73;18.17;;;5.60;99.90;;;;;;5024015;28;20232;-73
2022/03/25 03:52:12;;;;;;;38.17;18.60;;;5.60;99.90;;;;;;5027171;28;20224;-73
2022/03/25 03:54:39;;;;;;;41.20;19.37;;;5.50;99.90;;;;;;5025970;28;20581;-75
2022/03/25 03:57:08;;;;;;;41.40;19.77;;;5.40;99.90;;;;;;5028307;28;20198;-73
2022/03/25 03:59:35;;;;;;;38.77;18.57;;;5.40;99.90;;;;;;5020148;28;20282;-73
2022/03/25 04:02:03;;;;;;;38.10;19.73;;;5.50;99.90;;;;;;5024278;28;20214;-73
2022/03/25 04:04:30;;;;;;;35.27;18.90;;;5.40;99.90;;;;;;5025675;28;20518;-73
2022/03/25 04:06:57;;;;;;;36.50;17.67;;;5.50;99.90;;;;;;5018356;28;20200;-74
2022/03/25 04:09:23;;;;;;;36.13;17.90;;;5.50;99.90;;;;;;5027489;28;20265;-75
2022/03/25 04:11:50;;;;;;;37.83;17.73;;;5.50;99.90;;;;;;5026164;28;20263;-73
2022/03/25 04:14:16;;;;;;;40.97;19.23;;;5.30;99.90;;;;;;5018646;28;20207;-76
2022/03/25 04:16:43;;;;;;;37.27;18.87;;;5.30;99.90;;;;;;5019808;28;20193;-73
2022/03/25 04:19:09;;;;;;;40.27;19.33;;;5.40;99.90;;;;;;5022618;28;20224;-73
2022/03/25 04:21:36;;;;;;;43.47;18.97;;;5.40;99.90;;;;;;5021257;28;20198;-71
2022/03/25 04:24:03;;;;;;;40.40;18.77;;;5.40;99.90;;;;;;5025104;28;20249;-74
2022/03/25 04:26:30;;;;;;;39.40;18.43;;;5.30;99.90;;;;;;5022495;28;20206;-73
2022/03/25 04:28:57;;;;;;;38.90;18.33;;;5.30;99.90;;;;;;5017927;28;20215;-75
2022/03/25 04:31:23;;;;;;;41.97;18.70;;;5.20;99.90;;;;;;5020632;28;20261;-75
2022/03/25 04:33:50;;;;;;;40.67;19.10;;;5.10;99.90;;;;;;5019414;28;20276;-74
2022/03/25 04:36:17;;;;;;;39.13;17.93;;;5.00;99.90;;;;;;5023970;28;20206;-71
2022/03/25 04:38:43;;;;;;;41.80;19.67;;;5.00;99.90;;;;;;5022049;28;20215;-73
2022/03/25 04:41:10;;;;;;;41.60;20.67;;;5.10;99.90;;;;;;5021175;28;20257;-74
2022/03/25 04:43:38;;;;;;;45.33;20.03;;;5.30;99.90;;;;;;5023607;28;20203;-73
2022/03/25 04:46:05;;;;;;;42.27;18.70;;;5.40;99.90;;;;;;5023362;28;20205;-75
2022/03/25 04:48:33;;;;;;;41.87;20.03;;;5.30;99.90;;;;;;5020354;28;20213;-73
2022/03/25 04:51:00;;;;;;;40.33;18.73;;;5.20;99.90;;;;;;5025173;28;20227;-75
2022/03/25 04:53:27;;;;;;;39.10;18.77;;;5.10;99.90;;;;;;5021852;28;20196;-73
2022/03/25 04:55:53;;;;;;;39.47;18.40;;;5.20;99.90;;;;;;5021563;28;20196;-73
2022/03/25 04:58:21;;;;;;;36.17;18.60;;;5.00;99.90;;;;;;5021637;28;20215;-73
2022/03/25 05:00:48;;;;;;;40.80;19.50;;;4.90;99.90;;;;;;5016333;28;20196;-74
2022/03/25 05:03:15;;;;;;;38.43;19.37;;;4.80;99.90;;;;;;5022058;28;20203;-73
2022/03/25 05:05:42;;;;;;;40.63;19.27;;;4.80;99.90;;;;;;5022725;28;20437;-71
2022/03/25 05:08:11;;;;;;;39.80;18.00;;;4.90;99.90;;;;;;5023706;28;20777;-73
2022/03/25 05:10:38;;;;;;;37.07;18.70;;;4.90;99.90;;;;;;5024376;28;20668;-75
2022/03/25 05:13:25;;;;;;;44.33;20.17;;;4.80;99.90;;;;;;5020670;28;20207;-71
2022/03/25 05:15:52;;;;;;;39.57;20.17;;;5.00;99.90;;;;;;5024155;28;20202;-72
2022/03/25 05:18:18;;;;;;;38.90;19.30;;;4.90;99.90;;;;;;5020246;28;20226;-74
2022/03/25 05:20:45;;;;;;;40.60;20.07;;;5.00;99.90;;;;;;5021749;28;20218;-72
2022/03/25 05:23:12;;;;;;;43.63;20.80;;;5.00;99.90;;;;;;5019083;28;20210;-72
2022/03/25 05:25:39;;;;;;;43.23;20.20;;;4.90;99.90;;;;;;5021791;28;20192;-74
2022/03/25 05:28:06;;;;;;;37.10;19.20;;;4.90;99.90;;;;;;5024421;28;20223;-72
2022/03/25 05:30:35;;;;;;;39.93;18.57;;;4.90;99.90;;;;;;5023936;28;20200;-72
2022/03/25 05:33:02;;;;;;;47.20;20.30;;;4.80;99.90;;;;;;5017672;28;20787;-72
2022/03/25 05:35:30;;;;;;;40.43;19.73;;;4.90;99.90;;;;;;5028828;28;20191;-73
2022/03/25 05:37:57;;;;;;;39.43;19.47;;;5.00;99.90;;;;;;5025008;28;20746;-72
2022/03/25 05:40:25;;;;;;;40.60;19.47;;;5.00;99.90;;;;;;5022736;28;20185;-72
2022/03/25 05:42:52;;;;;;;35.87;18.90;;;5.00;99.90;;;;;;5028346;28;20215;-73
2022/03/25 05:45:20;;;;;;;38.17;18.27;;;5.00;99.90;;;;;;5023646;28;20196;-72
2022/03/25 05:47:47;;;;;;;41.17;19.50;;;4.90;99.90;;;;;;5022006;28;20259;-74
2022/03/25 05:50:15;;;;;;;42.20;19.30;;;4.90;99.90;;;;;;5030275;28;20262;-72
2022/03/25 05:52:42;;;;;;;38.10;18.93;;;5.00;99.90;;;;;;5023906;28;20667;-72
2022/03/25 05:55:12;;;;;;;38.50;18.77;;;5.00;99.90;;;;;;5024127;28;20199;-72
2022/03/25 05:57:39;;;;;;;40.33;20.13;;;5.00;99.90;;;;;;5026465;28;20195;-73
2022/03/25 06:00:08;;;;;;;47.00;21.47;;;5.10;99.90;;;;;;5031468;28;20212;-73
2022/03/25 06:02:35;;;;;;;43.70;20.00;;;5.30;99.90;;;;;;5025337;28;20286;-72
2022/03/25 06:05:03;;;;;;;39.27;19.63;;;5.50;99.90;;;;;;5017081;28;20369;-72
2022/03/25 06:07:37;;;;;;;42.53;20.00;;;5.60;99.90;;;;;;5025447;28;20724;-74
2022/03/25 06:10:07;;;;;;;38.60;20.27;;;5.50;99.90;;;;;;5017172;28;20212;-72
2022/03/25 06:12:34;;;;;;;38.87;19.23;;;5.50;99.90;;;;;;5027037;28;20218;-74
2022/03/25 06:15:01;;;;;;;41.37;19.43;;;5.60;99.90;;;;;;5027900;28;20204;-72
2022/03/25 06:17:27;;;;;;;39.57;19.40;;;5.70;99.90;;;;;;5027669;28;20202;-71
2022/03/25 06:19:54;;;;;;;36.07;19.10;;;5.80;99.90;;;;;;5027443;28;20252;-74
2022/03/25 06:22:24;;;;;;;37.67;18.90;;;5.90;99.90;;;;;;5021006;28;20670;-72
2022/03/25 06:24:54;;;;;;;39.03;19.77;;;6.00;99.90;;;;;;5022110;28;20250;-74
2022/03/25 06:27:21;;;;;;;37.87;20.10;;;6.10;99.90;;;;;;5027018;28;20229;-74
2022/03/25 06:29:47;;;;;;;39.10;19.57;;;6.20;99.90;;;;;;5028593;28;20223;-72
2022/03/25 06:32:14;;;;;;;40.37;20.27;;;6.30;99.90;;;;;;5032229;28;20216;-72
2022/03/25 06:34:41;;;;;;;40.00;20.60;;;6.40;99.90;;;;;;5025439;28;20268;-74
2022/03/25 06:37:07;;;;;;;42.27;19.67;;;6.40;99.90;;;;;;5022510;28;20540;-74
2022/03/25 06:39:34;;;;;;;42.90;19.57;;;6.50;99.90;;;;;;5022930;28;20212;-72
2022/03/25 06:42:01;;;;;;;41.27;19.23;;;6.70;99.90;;;;;;5023376;28;20573;-71
2022/03/25 06:44:28;;;;;;;37.03;18.10;;;6.80;99.90;;;;;;5022870;28;20203;-72
2022/03/25 06:46:55;;;;;;;42.57;20.00;;;6.80;99.90;;;;;;5023165;28;21648;-72
2022/03/25 06:49:21;;;;;;;40.73;20.27;;;7.00;99.90;;;;;;5023217;28;20220;-71
2022/03/25 06:51:49;;;;;;;39.23;19.33;;;6.90;99.90;;;;;;5020444;28;20702;-70
2022/03/25 06:54:16;;;;;;;46.00;20.00;;;7.10;99.90;;;;;;5024839;28;20201;-72
2022/03/25 06:56:43;;;;;;;44.57;20.33;;;7.10;99.90;;;;;;5022384;28;20203;-71
2022/03/25 06:59:10;;;;;;;41.60;19.93;;;7.20;99.90;;;;;;5021898;28;20691;-70
2022/03/25 07:01:37;;;;;;;47.40;19.83;;;7.30;99.90;;;;;;5029096;28;20697;-71
2022/03/25 07:04:04;;;;;;;43.33;18.80;;;7.30;99.90;;;;;;5025381;28;20239;-73
2022/03/25 07:06:31;;;;;;;43.20;21.00;;;7.30;99.90;;;;;;5024715;28;20200;-71
2022/03/25 07:08:58;;;;;;;37.57;19.80;;;7.50;99.90;;;;;;5028477;28;20219;-69
2022/03/25 07:11:25;;;;;;;41.27;20.03;;;7.70;99.90;;;;;;5013718;28;20230;-71
2022/03/25 07:13:52;;;;;;;39.43;20.47;;;7.70;99.90;;;;;;5014897;28;20766;-73
2022/03/25 07:16:19;;;;;;;41.57;18.93;;;7.80;99.90;;;;;;5018054;28;20678;-71
2022/03/25 07:18:47;;;;;;;40.37;19.90;;;8.00;99.90;;;;;;5022503;28;20269;-71
2022/03/25 07:21:14;;;;;;;37.73;19.47;;;8.20;99.90;;;;;;5016473;28;20202;-71
2022/03/25 07:23:40;;;;;;;38.93;19.33;;;8.20;99.90;;;;;;5025548;28;20193;-71
2022/03/25 07:26:07;;;;;;;44.70;20.13;;;8.20;99.90;;;;;;5020519;28;20200;-72
2022/03/25 07:28:37;;;;;;;44.53;20.37;;;8.40;99.90;;;;;;5024233;28;20223;-72
2022/03/25 07:31:04;;;;;;;41.50;20.20;;;8.50;99.90;;;;;;5025556;28;20196;-71
2022/03/25 07:33:31;;;;;;;43.77;19.43;;;8.70;99.90;;;;;;5025149;28;20699;-73
2022/03/25 07:36:00;;;;;;;39.03;18.33;;;8.90;99.90;;;;;;5024070;28;20216;-74
2022/03/25 07:38:28;;;;;;;47.00;19.87;;;9.10;99.90;;;;;;5021718;28;20239;-72
2022/03/25 07:40:56;;;;;;;47.90;20.00;;;9.20;99.90;;;;;;5031455;28;20246;-74
2022/03/25 07:43:22;;;;;;;40.00;20.20;;;9.40;99.90;;;;;;5023452;28;20238;-72
2022/03/25 07:45:49;;;;;;;38.73;19.77;;;9.50;99.90;;;;;;5020131;28;20310;-71
2022/03/25 07:48:17;;;;;;;38.90;19.70;;;9.30;99.90;;;;;;5026946;28;20224;-74
2022/03/25 07:50:44;;;;;;;42.53;19.83;;;9.40;99.90;;;;;;5029960;28;20202;-72
2022/03/25 07:53:11;;;;;;;39.97;20.53;;;9.70;99.90;;;;;;5020705;28;20222;-71
2022/03/25 07:55:38;;;;;;;35.90;19.37;;;9.80;99.90;;;;;;5019935;28;20673;-71
2022/03/25 07:58:05;;;;;;;38.50;20.20;;;9.90;99.90;;;;;;5019078;28;20222;-73
2022/03/25 08:00:38;;;;;;;40.50;19.83;;;10.10;99.90;;;;;;5022714;28;20194;-73
2022/03/25 08:03:06;;;;;;;36.83;19.43;;;10.20;99.90;;;;;;5022521;28;20220;-71
2022/03/25 08:05:34;;;;;;;37.77;19.83;;;10.40;99.90;;;;;;5019937;28;20223;-73
2022/03/25 08:08:02;;;;;;;50.97;20.73;;;10.60;99.90;;;;;;5021545;28;20238;-72
2022/03/25 08:10:30;;;;;;;38.27;20.57;;;10.70;99.90;;;;;;5019491;28;20215;-73
2022/03/25 08:12:58;;;;;;;41.63;20.93;;;10.90;99.90;;;;;;5023285;28;20229;-73
2022/03/25 08:15:27;;;;;;;42.17;21.27;;;10.90;99.90;;;;;;5023254;28;20200;-72
2022/03/25 08:17:57;;;;;;;35.67;19.57;;;11.00;99.90;;;;;;5019875;28;20207;-73
2022/03/25 08:20:29;;;;;;;48.60;21.40;;;11.10;99.90;;;;;;5020858;28;20329;-72
2022/03/25 08:22:57;;;;;;;41.03;20.80;;;11.30;99.90;;;;;;5022068;28;20456;-72
2022/03/25 08:28:11;;;;;;;38.67;21.17;;;11.60;99.90;;;;;;5021801;28;20293;-75
2022/03/25 08:30:38;;;;;;;43.83;20.33;;;11.80;99.90;;;;;;5039444;28;20213;-81
2022/03/25 08:33:05;;;;;;;41.70;20.87;;;12.00;99.90;;;;;;5018493;28;20221;-85
2022/03/25 08:35:33;;;;;;;46.13;21.90;;;12.30;99.90;;;;;;5019560;28;20217;-83
2022/03/25 08:38:00;;;;;;;47.60;22.63;;;12.40;99.90;;;;;;5022053;28;20217;-84
2022/03/25 08:40:29;;;;;;;40.63;20.97;;;12.40;99.90;;;;;;5022820;28;20207;-83
2022/03/25 08:42:56;;;;;;;42.37;21.37;;;12.60;99.90;;;;;;5018559;28;20701;-78
2022/03/25 08:45:23;;;;;;;45.13;21.07;;;12.70;99.90;;;;;;5025536;28;20201;-84
2022/03/25 08:47:50;;;;;;;44.80;21.93;;;12.70;99.90;;;;;;5020557;28;20489;-82
2022/03/25 08:50:19;;;;;;;43.83;23.23;;;12.40;99.90;;;;;;5025709;28;20208;-85
2022/03/25 08:52:47;;;;;;;39.77;21.13;;;12.60;99.90;;;;;;5013897;28;20224;-87
2022/03/25 08:55:14;;;;;;;40.57;20.87;;;12.70;99.90;;;;;;5019476;28;20203;-83
2022/03/25 08:57:41;;;;;;;41.77;22.03;;;12.80;99.90;;;;;;5020181;28;20539;-81
2022/03/25 09:00:10;;;;;;;45.70;21.53;;;13.00;99.90;;;;;;5022873;28;20195;-76
2022/03/25 09:02:43;;;;;;;40.53;21.43;;;13.30;99.90;;;;;;5022297;28;20679;-81
2022/03/25 09:05:11;;;;;;;41.90;22.33;;;13.50;99.90;;;;;;5023285;28;20929;-75
2022/03/25 09:07:39;;;;;;;41.33;22.33;;;13.70;99.90;;;;;;5023679;28;20196;-74
2022/03/25 09:10:07;;;;;;;40.13;22.13;;;13.90;99.90;;;;;;5022964;28;20223;-73
2022/03/25 09:12:35;;;;;;;44.30;21.93;;;14.10;99.90;;;;;;5020111;28;20217;-74
2022/03/25 09:15:04;;;;;;;44.10;21.97;;;14.30;99.90;;;;;;5020999;28;20229;-72
2022/03/25 09:17:31;;;;;;;40.43;21.80;;;14.50;99.90;;;;;;5021339;28;20613;-73
2022/03/25 09:19:57;;;;;;;39.37;22.43;;;14.70;99.90;;;;;;5021039;28;20211;-73
2022/03/25 09:22:24;;;;;;;43.83;23.73;;;14.90;99.90;;;;;;5027707;28;20191;-74
2022/03/25 09:24:51;;;;;;;49.03;25.20;;;15.10;99.90;;;;;;5020956;28;20194;-72
2022/03/25 09:27:17;;;;;;;46.93;24.13;;;15.30;99.90;;;;;;5020295;28;20664;-72
2022/03/25 09:29:45;;;;;;;47.43;23.17;;;15.30;99.90;;;;;;5017270;28;20226;-74
2022/03/25 09:32:11;;;;;;;47.43;24.00;;;15.40;99.90;;;;;;5018393;28;20231;-75
2022/03/25 09:37:42;;;;;;;46.47;23.97;;;15.70;99.90;;;;;;5025207;28;21037;-75
2022/03/25 09:40:12;;;;;;;47.87;24.10;;;15.80;99.90;;;;;;5026541;28;20234;-78
2022/03/25 09:42:41;;;;;;;43.10;24.00;;;15.90;99.90;;;;;;5021554;28;20584;-79
2022/03/25 09:45:10;;;;;;;49.60;25.43;;;16.00;99.90;;;;;;5020789;28;20249;-77
2022/03/25 09:47:38;;;;;;;52.60;25.27;;;16.00;99.90;;;;;;5017955;28;20656;-75
2022/03/25 09:50:09;;;;;;;56.33;27.57;;;16.20;99.90;;;;;;5017813;28;20200;-73
2022/03/25 09:52:36;;;;;;;49.73;26.27;;;16.40;99.90;;;;;;5021019;28;20220;-77
2022/03/25 09:55:22;;;;;;;50.10;26.00;;;16.40;99.90;;;;;;5016022;28;20211;-76
2022/03/25 09:57:49;;;;;;;55.53;26.43;;;16.70;99.90;;;;;;5024221;28;20191;-76
2022/03/25 10:00:18;;;;;;;60.13;27.67;;;16.90;99.90;;;;;;5020730;28;20200;-75
2022/03/25 10:02:45;;;;;;;57.63;27.10;;;17.20;99.90;;;;;;5016021;28;20207;-75
2022/03/25 10:05:20;;;;;;;49.33;26.23;;;17.30;99.90;;;;;;5016534;28;21195;-76
2022/03/25 10:07:51;;;;;;;57.20;26.10;;;17.50;99.90;;;;;;5016550;28;20667;-75
2022/03/25 10:10:23;;;;;;;54.23;26.40;;;17.60;99.90;;;;;;5014648;28;20207;-78
2022/03/25 10:12:59;;;;;;;50.83;25.63;;;17.70;99.90;;;;;;5015230;28;20219;-74
2022/03/25 10:15:28;;;;;;;53.90;25.97;;;17.80;99.90;;;;;;5016108;28;20233;-74
2022/03/25 10:17:57;;;;;;;46.17;25.00;;;17.70;99.90;;;;;;5021036;28;20782;-70
2022/03/25 10:20:27;;;;;;;49.93;24.33;;;17.80;99.90;;;;;;5021136;28;20212;-73
2022/03/25 10:23:04;;;;;;;55.10;25.80;;;17.90;99.90;;;;;;5023551;28;20920;-71
2022/03/25 10:25:49;;;;;;;49.80;25.83;;;17.90;99.90;;;;;;5023337;28;20277;-71
2022/03/25 10:28:32;;;;;;;48.50;25.50;;;18.00;99.90;;;;;;5025374;28;20599;-74
2022/03/25 10:31:02;;;;;;;49.07;25.27;;;18.20;99.90;;;;;;5020822;28;20196;-73
2022/03/25 10:33:43;;;;;;;51.57;25.47;;;18.30;99.90;;;;;;5020937;28;20234;-73
2022/03/25 10:36:14;;;;;;;52.23;25.27;;;18.60;99.30;;;;;;5019468;28;20210;-72
2022/03/25 10:38:58;;;;;;;44.67;24.53;;;18.80;98.90;;;;;;5019319;28;20215;-70
2022/03/25 10:41:39;;;;;;;46.07;23.57;;;18.90;97.40;;;;;;5017268;28;20219;-72
2022/03/25 10:44:08;;;;;;;45.20;23.70;;;18.90;96.00;;;;;;5029861;28;20207;-72
2022/03/25 10:46:38;;;;;;;41.60;23.03;;;18.80;95.80;;;;;;5023583;28;20200;-72
2022/03/25 10:49:11;;;;;;;47.07;23.47;;;18.90;96.10;;;;;;5023341;28;20231;-71
2022/03/25 10:51:43;;;;;;;45.30;24.33;;;19.00;95.10;;;;;;5025365;28;20675;-72
2022/03/25 10:54:12;;;;;;;45.93;23.83;;;19.10;94.90;;;;;;5027324;28;20223;-70
2022/03/25 10:56:59;;;;;;;46.77;23.63;;;19.20;94.50;;;;;;5026982;28;20298;-70
2022/03/25 10:59:32;;;;;;;44.20;24.67;;;19.40;94.40;;;;;;5024594;28;20212;-73
2022/03/25 11:02:06;;;;;;;46.27;23.60;;;19.40;93.80;;;;;;5023692;28;20646;-73
2022/03/25 11:04:35;;;;;;;45.87;23.60;;;19.40;93.20;;;;;;5025415;28;20203;-71
2022/03/25 11:07:02;;;;;;;45.63;24.40;;;19.30;93.30;;;;;;5025171;28;20200;-70
2022/03/25 11:09:30;;;;;;;43.13;23.73;;;19.20;93.60;;;;;;5023295;28;20237;-73
2022/03/25 11:11:58;;;;;;;41.53;23.30;;;19.20;93.70;;;;;;5021863;28;20196;-73
2022/03/25 11:14:26;;;;;;;48.37;24.60;;;19.30;93.10;;;;;;5018929;28;20806;-74
2022/03/25 11:17:01;;;;;;;46.07;24.53;;;19.30;92.70;;;;;;5019075;28;20194;-74
2022/03/25 11:19:29;;;;;;;43.70;23.63;;;19.30;92.70;;;;;;5026714;28;20207;-75
2022/03/25 11:21:57;;;;;;;46.00;23.97;;;19.20;92.50;;;;;;5022837;28;20873;-73
2022/03/25 11:24:36;;;;;;;43.00;23.07;;;19.00;92.10;;;;;;5022890;28;20210;-75
2022/03/25 11:27:08;;;;;;;44.87;24.03;;;19.10;91.60;;;;;;5021381;28;20222;-74
2022/03/25 11:29:39;;;;;;;41.90;23.63;;;19.10;91.80;;;;;;5023842;28;20603;-75
2022/03/25 11:32:13;;;;;;;43.13;23.77;;;19.10;91.80;;;;;;5018716;28;20875;-74
2022/03/25 11:34:43;;;;;;;43.30;24.63;;;18.90;91.90;;;;;;5020762;28;20199;-75
2022/03/25 11:37:20;;;;;;;48.07;24.50;;;18.90;91.90;;;;;;5020892;28;20195;-76
2022/03/25 11:40:25;;;;;;;46.03;23.57;;;18.90;91.80;;;;;;5019964;28;20270;-71
2022/03/25 11:42:56;;;;;;;45.20;24.80;;;18.90;91.70;;;;;;5020255;28;20226;-75
2022/03/25 11:45:32;;;;;;;41.87;23.17;;;18.90;92.00;;;;;;5022148;28;20222;-78
2022/03/25 11:48:03;;;;;;;44.20;23.37;;;19.00;91.90;;;;;;5021955;28;20251;-76
2022/03/25 11:50:38;;;;;;;44.77;24.30;;;19.20;91.60;;;;;;5019026;28;20207;-75
2022/03/25 11:53:11;;;;;;;49.03;24.70;;;19.40;91.80;;;;;;5019299;28;20222;-76
2022/03/25 11:55:58;;;;;;;41.47;23.53;;;19.40;91.40;;;;;;5022187;28;20221;-74
2022/03/25 11:58:27;;;;;;;40.80;22.63;;;19.50;91.20;;;;;;5026691;28;20231;-71
2022/03/25 12:01:09;;;;;;;43.70;23.93;;;19.50;91.20;;;;;;5027486;28;20615;-73
2022/03/25 12:03:47;;;;;;;40.17;22.67;;;19.60;90.80;;;;;;5026798;28;20211;-70
2022/03/25 12:06:16;;;;;;;41.23;23.00;;;19.80;90.70;;;;;;5025138;28;20662;-73
2022/03/25 12:09:05;;;;;;;48.33;23.37;;;20.00;90.70;;;;;;5027029;28;20215;-75
2022/03/25 12:11:55;;;;;;;39.83;23.23;;;20.00;90.60;;;;;;5030986;28;20202;-75
2022/03/25 12:14:33;;;;;;;43.27;22.77;;;20.00;89.70;;;;;;5023494;28;20707;-76
2022/03/25 12:17:12;;;;;;;47.30;22.47;;;20.00;90.00;;;;;;5027920;28;20290;-73
2022/03/25 12:19:47;;;;;;;44.67;22.30;;;19.80;90.10;;;;;;5022606;28;20744;-77
2022/03/25 12:22:20;;;;;;;46.07;23.67;;;19.80;90.00;;;;;;5024494;28;20195;-76
2022/03/25 12:24:48;;;;;;;41.30;22.33;;;19.90;90.10;;;;;;5016631;28;20203;-74
2022/03/25 12:27:16;;;;;;;46.73;21.70;;;20.00;90.10;;;;;;5021218;28;20195;-76
2022/03/25 12:29:44;;;;;;;46.73;23.47;;;20.30;90.00;;;;;;5024509;28;20223;-74
2022/03/25 12:32:14;;;;;;;43.28;22.90;;;20.50;89.90;;;;;;5030437;28;20658;-71
2022/03/25 12:35:02;;;;;;;42.47;22.80;;;20.60;89.80;;;;;;5042067;28;20226;-74
2022/03/25 12:37:34;;;;;;;39.35;21.77;;;20.40;88.70;;;;;;5019744;28;20215;-77
2022/03/25 12:40:25;;;;;;;42.87;23.33;;;20.50;89.40;;;;;;5015262;28;20198;-75
2022/03/25 12:42:59;;;;;;;40.35;21.73;;;20.40;87.10;;;;;;5020936;28;20305;-75
2022/03/25 12:45:30;;;;;;;41.03;22.00;;;20.40;87.50;;;;;;5023030;28;20206;-77
2022/03/25 12:48:05;;;;;;;43.70;22.50;;;20.30;86.10;;;;;;5024611;28;20215;-75